Time;durP1;ratioP1;P1;durP2;ratioP2;P2;SDS_P1;SDS_P2;PMS_P1;PMS_P2;Temp;Humidity;BMP_temperature;BMP_pressure;BME280_temperature;BME280_humidity;BME280_pressure;Samples;Min_cycle;Max_cycle;Signal;HPM_P1;HPM_P2
2021/04/30 00:00:58;;;;;;;2.25;1.67;;;13.90;99.90;;;13.28;92.91;100078.28;5011606;28;20112;-48
2021/04/30 00:03:24;;;;;;;5.20;2.08;;;13.90;99.90;;;13.24;93.21;100069.94;5014050;28;20137;-46
2021/04/30 00:05:50;;;;;;;5.22;1.52;;;13.80;99.90;;;13.28;93.17;100073.03;5009468;28;20038;-52
2021/04/30 00:08:16;;;;;;;3.80;1.85;;;13.80;99.90;;;13.29;92.82;100072.88;5024238;28;20034;-50
2021/04/30 00:10:43;;;;;;;5.43;1.35;;;13.90;99.90;;;13.29;93.05;100077.28;5029130;28;20045;-47
2021/04/30 00:13:11;;;;;;;5.20;1.83;;;13.90;99.90;;;13.33;92.87;100073.34;5016892;28;20061;-45
2021/04/30 00:15:38;;;;;;;4.20;1.50;;;13.90;99.90;;;13.34;92.81;100068.94;5009514;28;20053;-48
2021/04/30 00:18:05;;;;;;;2.28;1.77;;;13.90;99.90;;;13.35;92.65;100070.56;5019652;28;20071;-47
2021/04/30 00:20:33;;;;;;;4.45;1.70;;;13.90;99.90;;;13.33;92.84;100070.72;5028773;28;20037;-50
2021/04/30 00:22:59;;;;;;;4.35;1.60;;;13.90;99.90;;;13.30;93.11;100073.69;5027537;28;20029;-45
2021/04/30 00:25:26;;;;;;;3.58;1.55;;;13.90;99.90;;;13.32;92.99;100070.91;5028726;28;20120;-49
2021/04/30 00:27:52;;;;;;;6.05;1.60;;;13.90;99.90;;;13.36;93.27;100062.53;5027204;28;20503;-51
2021/04/30 00:30:19;;;;;;;3.95;2.10;;;13.90;99.90;;;13.41;93.27;100070.69;5028723;28;20163;-46
2021/04/30 00:32:45;;;;;;;4.60;1.73;;;14.00;99.90;;;13.43;93.21;100073.13;5026674;28;20124;-50
2021/04/30 00:35:11;;;;;;;3.63;1.58;;;14.00;99.90;;;13.43;92.95;100070.53;5028886;28;20135;-47
2021/04/30 00:37:38;;;;;;;5.53;1.80;;;14.00;99.90;;;13.44;92.75;100070.34;5027473;28;20572;-52
2021/04/30 00:40:10;;;;;;;6.10;2.58;;;14.00;99.90;;;13.45;93.02;100071.97;5028447;28;20072;-47
2021/04/30 00:42:36;;;;;;;4.72;1.67;;;14.00;99.90;;;13.45;92.94;100065.94;5010181;28;20104;-47
2021/04/30 00:45:05;;;;;;;3.72;2.53;;;14.00;99.90;;;13.44;93.01;100075.59;5008966;28;20037;-53
2021/04/30 00:47:38;;;;;;;3.20;1.83;;;14.00;99.90;;;13.43;93.22;100073.13;5026422;28;20116;-49
2021/04/30 00:50:09;;;;;;;6.97;1.92;;;14.00;99.90;;;13.39;93.30;100071.84;5028127;28;20513;-45
2021/04/30 00:52:36;;;;;;;3.80;2.35;;;14.00;99.90;;;13.37;93.53;100069.41;5012051;28;20046;-49
2021/04/30 00:55:12;;;;;;;7.32;2.42;;;14.00;99.90;;;13.37;93.97;100076.44;5009486;28;20026;-48
2021/04/30 00:57:46;;;;;;;6.57;2.53;;;13.90;99.90;;;13.35;94.00;100075.78;5025902;28;20346;-49
2021/04/30 01:00:14;;;;;;;3.28;2.30;;;13.90;99.90;;;13.36;94.17;100080.84;5011584;28;20025;-51
2021/04/30 01:02:40;;;;;;;4.40;2.42;;;14.00;99.90;;;13.37;93.99;100077.25;5027408;28;20112;-46
2021/04/30 01:05:08;;;;;;;3.17;2.70;;;14.00;99.90;;;13.40;94.04;100079.53;5012778;28;20128;-49
2021/04/30 01:07:35;;;;;;;3.53;2.20;;;14.00;99.90;;;13.43;94.13;100079.19;5011345;28;20462;-47
2021/04/30 01:10:02;;;;;;;8.80;3.00;;;14.00;99.90;;;13.46;93.93;100078.03;5027193;28;20068;-52
2021/04/30 01:12:29;;;;;;;5.45;2.40;;;14.10;99.90;;;13.49;94.02;100078.50;5026980;28;20453;-50
2021/04/30 01:14:56;;;;;;;4.60;2.50;;;14.10;99.90;;;13.56;93.86;100079.44;5018178;28;20112;-52
2021/04/30 01:17:22;;;;;;;4.10;2.38;;;14.10;99.90;;;13.53;93.69;100079.78;5008419;28;20519;-44
2021/04/30 01:19:48;;;;;;;3.42;1.90;;;14.10;99.90;;;13.56;93.46;100078.63;5027138;28;20033;-48
2021/04/30 01:22:38;;;;;;;6.80;2.22;;;14.10;99.90;;;13.51;93.19;100081.75;5027843;28;20032;-46
2021/04/30 01:25:13;;;;;;;4.35;2.22;;;14.10;99.90;;;13.47;93.63;100080.47;5009477;28;20080;-44
2021/04/30 01:27:40;;;;;;;4.73;2.47;;;14.10;99.90;;;13.45;93.86;100082.44;5014475;28;20481;-47
2021/04/30 01:30:35;;;;;;;4.38;2.97;;;14.10;99.90;;;13.44;94.03;100082.63;5027656;28;20347;-48
2021/04/30 01:33:03;;;;;;;6.88;2.60;;;14.00;99.90;;;13.43;93.93;100089.66;5027104;28;20048;-48
2021/04/30 01:35:35;;;;;;;6.15;2.90;;;14.00;99.90;;;13.46;94.09;100085.88;5022006;28;20049;-46
2021/04/30 01:38:03;;;;;;;4.00;2.70;;;14.10;99.90;;;13.46;93.92;100076.22;5011321;28;20051;-44
2021/04/30 01:40:33;;;;;;;5.50;2.65;;;14.00;99.90;;;13.48;93.83;100071.63;5008020;28;20121;-45
2021/04/30 01:43:06;;;;;;;3.55;2.58;;;14.00;99.90;;;13.46;93.83;100073.59;5010701;28;20029;-48
2021/04/30 01:45:39;;;;;;;6.55;2.70;;;14.00;99.90;;;13.43;93.90;100073.13;5026116;28;20315;-45
2021/04/30 01:48:11;;;;;;;4.05;2.63;;;14.00;99.90;;;13.43;93.86;100075.75;5007793;28;20119;-48
2021/04/30 01:50:37;;;;;;;4.03;2.30;;;14.00;99.90;;;13.43;93.83;100076.56;5006416;28;20120;-49
2021/04/30 01:53:07;;;;;;;4.28;3.05;;;14.00;99.90;;;13.45;94.06;100077.22;5007940;28;20030;-52
2021/04/30 01:55:33;;;;;;;5.45;3.10;;;14.10;99.90;;;13.46;94.23;100072.78;5008779;28;20117;-48
2021/04/30 01:57:59;;;;;;;4.55;3.20;;;14.00;99.90;;;13.46;94.22;100067.56;5008039;28;20088;-51
2021/04/30 02:00:27;;;;;;;5.47;3.33;;;14.00;99.90;;;13.48;94.23;100066.41;5007399;28;20034;-52
2021/04/30 02:02:56;;;;;;;3.80;3.10;;;14.10;99.90;;;13.51;94.41;100054.78;5007916;28;20030;-47
2021/04/30 02:05:28;;;;;;;12.25;4.32;;;14.10;99.90;;;13.54;94.20;100060.47;5008081;28;20038;-49
2021/04/30 02:08:00;;;;;;;4.10;2.95;;;14.10;99.90;;;13.54;94.17;100065.72;5012267;28;20120;-51
2021/04/30 02:10:26;;;;;;;6.85;2.70;;;14.10;99.90;;;13.53;94.15;100065.88;5007805;28;20049;-48
2021/04/30 02:12:55;;;;;;;8.40;2.22;;;14.10;99.90;;;13.57;94.10;100064.56;5007392;28;20040;-50
2021/04/30 02:15:25;;;;;;;7.43;2.83;;;14.10;99.90;;;13.58;94.13;100056.53;5007681;28;20414;-45
2021/04/30 02:17:52;;;;;;;4.97;2.72;;;14.10;99.90;;;13.57;94.00;100065.38;5025557;28;20041;-45
2021/04/30 02:20:21;;;;;;;6.43;3.28;;;14.10;99.90;;;13.55;94.11;100062.09;5027260;28;20098;-47
2021/04/30 02:22:47;;;;;;;6.28;4.00;;;14.10;99.90;;;13.56;94.02;100063.75;5009296;28;20478;-49
2021/04/30 02:25:15;;;;;;;5.25;3.85;;;14.10;99.90;;;13.55;93.95;100062.09;5010539;28;20318;-48
2021/04/30 02:27:43;;;;;;;6.13;3.30;;;14.20;99.90;;;13.51;94.46;100058.22;5024178;28;20124;-49
2021/04/30 02:30:15;;;;;;;6.60;3.80;;;14.10;99.90;;;13.54;94.13;100064.91;5026094;28;20026;-48
2021/04/30 02:32:43;;;;;;;6.63;3.60;;;14.10;99.90;;;13.52;94.16;100051.97;5027264;28;20037;-45
2021/04/30 02:35:17;;;;;;;8.65;4.22;;;14.10;99.90;;;13.53;94.13;100058.84;5014257;28;20121;-45
2021/04/30 02:37:45;;;;;;;8.75;4.30;;;14.10;99.90;;;13.51;94.35;100060.81;5008954;28;20112;-45
2021/04/30 02:42:47;;;;;;;10.90;4.15;;;14.10;99.90;;;13.56;94.47;100055.88;5128054;22;19932;-45
2021/04/30 02:45:15;;;;;;;7.45;4.05;;;14.10;99.90;;;13.60;93.91;100057.16;5027494;28;20116;-48
2021/04/30 02:47:46;;;;;;;10.20;5.35;;;14.10;99.90;;;13.63;93.82;100055.19;5026231;28;20128;-50
2021/04/30 02:50:17;;;;;;;10.10;4.88;;;14.20;99.90;;;13.63;93.88;100063.06;5026849;28;20033;-52
2021/04/30 02:52:44;;;;;;;8.45;4.55;;;14.20;99.90;;;13.63;93.87;100060.44;5024205;28;20136;-49
2021/04/30 02:55:13;;;;;;;8.50;4.53;;;14.20;99.90;;;13.65;93.93;100058.44;5027467;28;20068;-50
2021/04/30 02:57:39;;;;;;;12.52;5.25;;;14.20;99.90;;;13.64;94.07;100060.25;5030573;28;20375;-50
2021/04/30 03:00:09;;;;;;;10.02;3.90;;;14.20;99.90;;;13.67;93.96;100066.94;5012008;28;20029;-50
2021/04/30 03:02:35;;;;;;;10.52;5.40;;;14.20;99.90;;;13.66;93.85;100068.75;5029483;28;20029;-49
2021/04/30 03:05:01;;;;;;;12.05;5.32;;;14.20;99.90;;;13.66;93.98;100053.03;5030939;28;20044;-47
2021/04/30 03:07:27;;;;;;;12.80;5.65;;;14.20;99.90;;;13.68;94.02;100065.97;5029183;28;20041;-51
2021/04/30 03:09:53;;;;;;;13.15;5.22;;;14.20;99.90;;;13.70;94.08;100059.56;5029777;28;20068;-45
2021/04/30 03:12:19;;;;;;;11.48;4.65;;;14.30;99.90;;;13.71;93.89;100060.34;5029642;28;20516;-52
2021/04/30 03:14:45;;;;;;;7.47;4.55;;;14.30;99.90;;;13.69;93.98;100067.59;5030178;28;20543;-52
2021/04/30 03:17:11;;;;;;;11.93;3.92;;;14.30;99.90;;;13.59;94.34;100063.41;5029598;28;20117;-51
2021/04/30 03:19:37;;;;;;;8.10;4.88;;;14.20;99.90;;;13.53;94.63;100068.50;5030240;28;20064;-48
2021/04/30 03:22:03;;;;;;;7.32;4.57;;;14.20;99.90;;;13.55;94.80;100069.16;5029900;28;20512;-51
2021/04/30 03:24:29;;;;;;;12.05;5.60;;;14.20;99.90;;;13.60;94.69;100072.88;5029297;28;20045;-50
2021/04/30 03:26:55;;;;;;;8.98;5.70;;;14.20;99.90;;;13.65;94.59;100066.31;5030148;28;20037;-52
2021/04/30 03:29:21;;;;;;;12.02;5.75;;;14.20;99.90;;;13.68;94.38;100071.19;5029397;28;20050;-49
2021/04/30 03:31:47;;;;;;;9.15;5.75;;;14.20;99.90;;;13.70;93.94;100074.47;5029597;28;20451;-46
2021/04/30 03:34:13;;;;;;;9.75;5.10;;;14.30;99.90;;;13.71;94.12;100076.06;5029386;28;20065;-52
2021/04/30 03:36:39;;;;;;;11.82;5.53;;;14.30;99.90;;;13.74;94.02;100075.72;5029779;28;20065;-50
2021/04/30 03:39:08;;;;;;;10.68;5.18;;;14.30;99.90;;;13.75;93.89;100083.38;5011164;28;20037;-51
2021/04/30 03:41:35;;;;;;;7.72;6.00;;;14.30;99.90;;;13.75;93.78;100087.81;5029650;28;20052;-46
2021/04/30 03:44:02;;;;;;;9.65;5.22;;;14.30;99.90;;;13.75;94.01;100083.38;5028105;28;20103;-50
2021/04/30 03:46:28;;;;;;;8.25;5.25;;;14.30;99.90;;;13.81;93.70;100074.03;5021566;28;20088;-47
2021/04/30 03:48:54;;;;;;;11.38;5.03;;;14.30;99.90;;;13.77;93.52;100083.22;5028118;28;20033;-51
2021/04/30 03:51:20;;;;;;;8.55;4.10;;;14.30;99.90;;;13.78;93.69;100084.84;5029635;28;20369;-45
2021/04/30 03:53:46;;;;;;;7.53;5.25;;;14.30;99.90;;;13.81;93.50;100093.16;5025085;28;20513;-48
2021/04/30 03:56:13;;;;;;;6.22;4.18;;;14.40;99.90;;;13.81;93.42;100093.16;5009775;28;20033;-52
2021/04/30 03:58:39;;;;;;;9.73;4.53;;;14.40;99.90;;;13.84;93.17;100081.53;5007905;28;20045;-48
2021/04/30 04:01:06;;;;;;;15.75;5.38;;;14.40;99.90;;;13.84;93.20;100081.53;5021861;28;20060;-51
2021/04/30 04:03:34;;;;;;;12.73;3.40;;;14.40;99.90;;;13.88;93.10;100085.44;5028468;28;20451;-46
2021/04/30 04:06:01;;;;;;;8.27;3.55;;;14.40;99.90;;;13.91;92.56;100085.09;5008629;28;20222;-48
2021/04/30 04:08:29;;;;;;;7.80;3.72;;;14.50;99.90;;;13.95;92.27;100089.00;5009589;28;20029;-49
2021/04/30 04:10:56;;;;;;;9.68;4.28;;;14.50;99.90;;;13.95;92.22;100096.84;5027143;28;20068;-48
2021/04/30 04:13:25;;;;;;;13.23;4.25;;;14.50;99.90;;;13.97;91.95;100092.25;5027425;28;20567;-48
2021/04/30 04:15:53;;;;;;;7.53;4.60;;;14.50;99.90;;;13.96;92.12;100095.84;5029274;28;20049;-50
2021/04/30 04:18:20;;;;;;;9.00;3.92;;;14.50;99.90;;;13.96;92.33;100101.09;5019772;28;20512;-51
2021/04/30 04:20:47;;;;;;;8.40;4.00;;;14.50;99.90;;;14.00;91.93;100101.56;5008276;28;20100;-53
2021/04/30 04:23:13;;;;;;;8.35;4.20;;;14.60;99.90;;;14.01;91.62;100101.38;5008463;28;20084;-46
2021/04/30 04:25:39;;;;;;;12.30;4.45;;;14.50;99.90;;;14.02;91.86;100108.25;5009478;28;20089;-49
2021/04/30 04:28:06;;;;;;;11.65;4.10;;;14.60;99.90;;;14.02;91.98;100115.28;5021317;28;20025;-45
2021/04/30 04:30:33;;;;;;;8.35;4.90;;;14.60;99.90;;;14.03;91.77;100115.13;5020557;28;20049;-49
2021/04/30 04:32:59;;;;;;;9.55;4.47;;;14.60;99.90;;;14.05;91.71;100113.16;5008872;28;20069;-45
2021/04/30 04:35:25;;;;;;;12.82;5.28;;;14.60;99.90;;;14.03;92.03;100122.97;5014091;28;20034;-47
2021/04/30 04:37:51;;;;;;;9.18;4.03;;;14.60;99.90;;;14.08;91.75;100118.03;5028819;28;20049;-49
2021/04/30 04:40:18;;;;;;;11.20;3.95;;;14.60;99.90;;;14.12;91.45;100121.94;5004810;28;20421;-50
2021/04/30 04:42:45;;;;;;;8.73;3.83;;;14.70;99.90;;;14.18;91.14;100131.69;5016841;28;20045;-49
2021/04/30 04:45:13;;;;;;;7.68;4.03;;;14.70;99.90;;;14.20;91.24;100134.94;5027028;28;20042;-49
2021/04/30 04:47:40;;;;;;;8.05;3.63;;;14.80;99.90;;;14.23;91.05;100134.59;5028621;28;20079;-45
2021/04/30 04:50:08;;;;;;;6.40;3.47;;;14.80;99.90;;;14.33;90.76;100133.53;5026821;28;20342;-50
2021/04/30 04:52:34;;;;;;;7.38;2.47;;;14.90;99.90;;;14.39;90.51;100135.47;5016464;28;20479;-48
2021/04/30 04:55:00;;;;;;;10.80;3.75;;;14.90;99.90;;;14.39;90.67;100136.28;5001895;28;20438;-47
2021/04/30 04:57:26;;;;;;;11.95;4.50;;;15.00;99.90;;;14.37;90.83;100137.44;5008538;28;20537;-49
2021/04/30 04:59:52;;;;;;;10.55;3.83;;;15.00;99.90;;;14.41;90.83;100143.97;5008469;28;20234;-49
2021/04/30 05:02:18;;;;;;;8.75;2.50;;;15.00;99.90;;;14.48;90.34;100139.69;5008586;28;20046;-50
2021/04/30 05:04:45;;;;;;;5.32;2.65;;;15.10;99.90;;;14.57;89.71;100143.84;5008878;28;20049;-48
2021/04/30 05:07:11;;;;;;;6.85;3.67;;;15.10;99.90;;;14.61;89.71;100145.13;5008630;28;20030;-48
2021/04/30 05:09:37;;;;;;;7.97;2.80;;;15.10;99.90;;;14.68;89.33;100147.81;5008521;28;20038;-47
2021/04/30 05:12:04;;;;;;;7.57;3.53;;;15.20;99.90;;;14.78;89.01;100151.00;5008923;28;20026;-50
2021/04/30 05:14:30;;;;;;;7.25;2.20;;;15.30;99.90;;;14.88;88.58;100151.56;5008575;28;20065;-49
2021/04/30 05:16:55;;;;;;;5.60;3.03;;;15.40;99.90;;;14.98;88.61;100154.75;5008347;28;20489;-48
2021/04/30 05:19:21;;;;;;;6.70;2.70;;;15.50;99.90;;;15.02;88.19;100152.59;5008480;28;20157;-50
2021/04/30 05:21:48;;;;;;;8.15;3.53;;;15.60;99.90;;;15.01;88.49;100158.81;5006949;28;20030;-48
2021/04/30 05:24:14;;;;;;;5.90;2.83;;;15.60;99.90;;;14.99;88.39;100158.19;5008222;28;20131;-51
2021/04/30 05:26:41;;;;;;;4.97;2.75;;;15.60;99.90;;;15.00;88.46;100160.63;5006895;28;20049;-51
2021/04/30 05:29:07;;;;;;;9.23;2.75;;;15.60;99.90;;;14.99;88.38;100163.44;5008231;28;20041;-45
2021/04/30 05:31:36;;;;;;;4.88;2.63;;;15.60;99.90;;;15.02;88.34;100171.75;5008272;28;20032;-50
2021/04/30 05:34:03;;;;;;;8.60;3.45;;;15.60;99.90;;;15.08;88.50;100173.66;5008259;28;20817;-48
2021/04/30 05:36:30;;;;;;;8.95;3.10;;;15.70;99.90;;;15.23;88.07;100171.03;5008030;28;20168;-47
2021/04/30 05:38:57;;;;;;;4.88;2.53;;;15.80;99.90;;;15.29;87.52;100172.91;5007892;28;20301;-50
2021/04/30 05:41:23;;;;;;;8.93;2.53;;;15.90;99.90;;;15.40;86.96;100171.66;5008465;28;20037;-49
2021/04/30 05:43:49;;;;;;;6.90;2.33;;;16.00;99.90;;;15.43;86.60;100160.78;5024947;28;20083;-47
2021/04/30 05:46:15;;;;;;;8.52;2.38;;;16.00;99.90;;;15.56;86.54;100168.84;5016873;28;20030;-51
2021/04/30 05:48:41;;;;;;;4.47;1.92;;;16.10;99.90;;;15.65;85.91;100172.97;5008227;28;20113;-46
2021/04/30 05:51:07;;;;;;;12.63;3.10;;;16.20;99.90;;;15.72;85.47;100162.56;5025020;23;20451;-47
2021/04/30 05:53:33;;;;;;;8.23;2.65;;;16.30;99.90;;;15.77;85.11;100174.13;5027458;28;20673;-50
2021/04/30 05:55:59;;;;;;;4.43;2.75;;;16.30;99.90;;;15.84;85.26;100161.09;5027825;28;20025;-52
2021/04/30 05:58:25;;;;;;;4.65;1.92;;;16.40;99.90;;;15.82;84.68;100163.91;5027538;28;20033;-48
2021/04/30 06:00:52;;;;;;;5.30;2.85;;;16.40;99.90;;;15.83;85.19;100167.34;5028199;28;20029;-47
2021/04/30 06:03:18;;;;;;;6.15;3.47;;;16.40;99.90;;;15.79;85.35;100173.97;5027492;28;20109;-50
2021/04/30 06:05:44;;;;;;;6.30;2.90;;;16.40;99.90;;;15.87;85.17;100172.03;5027638;28;20057;-47
2021/04/30 06:08:10;;;;;;;3.22;1.73;;;16.50;99.90;;;15.97;84.75;100174.38;5027282;28;20072;-47
2021/04/30 06:10:36;;;;;;;6.78;2.58;;;16.50;99.90;;;16.09;84.03;100174.66;5027331;28;20061;-51
2021/04/30 06:13:05;;;;;;;7.40;2.40;;;16.70;99.90;;;16.14;83.62;100172.28;5027449;28;20079;-49
2021/04/30 06:15:31;;;;;;;4.68;1.65;;;16.70;99.90;;;16.26;83.12;100176.88;5027543;28;20480;-48
2021/04/30 06:17:58;;;;;;;4.95;1.63;;;16.80;99.90;;;16.30;82.94;100177.31;5027483;28;20071;-48
2021/04/30 06:20:24;;;;;;;7.68;1.67;;;16.90;99.90;;;16.40;82.71;100190.13;5027431;28;20025;-50
2021/04/30 06:22:50;;;;;;;8.32;1.83;;;16.90;99.90;;;16.46;82.83;100184.13;5027374;28;20559;-47
2021/04/30 06:25:16;;;;;;;4.35;1.30;;;17.00;99.90;;;16.33;82.66;100179.56;5027583;28;20029;-48
2021/04/30 06:27:42;;;;;;;5.93;1.25;;;17.00;99.90;;;16.38;82.05;100179.00;5027544;28;20083;-47
2021/04/30 06:30:09;;;;;;;3.08;1.00;;;16.90;99.90;;;16.88;80.69;100181.44;5029370;28;20025;-50
2021/04/30 06:32:38;;;;;;;3.95;1.20;;;17.30;99.90;;;17.18;78.95;100187.28;5031268;28;20142;-49
2021/04/30 06:35:08;;;;;;;5.15;1.15;;;17.70;99.90;;;17.32;78.48;100185.53;5013009;28;20048;-52
2021/04/30 06:37:34;;;;;;;7.90;1.33;;;18.00;99.90;;;17.31;77.94;100191.81;5031541;28;20037;-44
2021/04/30 06:40:01;;;;;;;7.50;1.63;;;18.00;99.90;;;17.52;77.60;100183.78;5031391;28;20029;-47
2021/04/30 06:42:29;;;;;;;5.40;0.95;;;18.10;99.90;;;17.65;76.77;100188.34;5031135;28;20076;-45
2021/04/30 06:44:55;;;;;;;3.28;1.08;;;18.30;99.90;;;17.87;76.08;100194.31;5031009;28;20037;-49
2021/04/30 06:47:21;;;;;;;4.30;0.73;;;18.50;99.90;;;17.94;75.79;100197.78;5030701;28;20033;-47
2021/04/30 06:49:47;;;;;;;3.45;0.65;;;18.50;99.90;;;17.90;75.75;100207.09;5020146;28;20049;-46
2021/04/30 06:52:13;;;;;;;3.20;0.85;;;18.60;99.90;;;17.74;76.45;100215.34;5027249;28;20441;-46
2021/04/30 06:54:39;;;;;;;4.50;0.88;;;18.50;99.90;;;17.48;76.95;100208.94;5027638;28;20048;-45
2021/04/30 06:57:05;;;;;;;5.65;1.00;;;18.30;99.90;;;17.62;76.89;100214.22;5029260;28;20051;-49
2021/04/30 06:59:31;;;;;;;5.53;0.93;;;18.30;99.90;;;17.69;76.58;100218.56;5027758;28;20044;-51
2021/04/30 07:01:57;;;;;;;10.55;1.05;;;18.50;99.90;;;17.41;76.94;100209.91;5022745;28;20037;-47
2021/04/30 07:04:23;;;;;;;6.68;1.10;;;18.20;99.90;;;17.39;77.12;100210.09;5028394;28;20037;-48
2021/04/30 07:06:49;;;;;;;3.50;0.73;;;18.20;99.90;;;17.35;76.99;100208.84;5030556;28;20022;-50
2021/04/30 07:09:15;;;;;;;6.55;1.05;;;18.10;99.90;;;17.53;76.64;100198.59;5030856;28;20447;-47
2021/04/30 07:11:41;;;;;;;4.95;1.05;;;18.20;99.90;;;17.71;76.19;100208.63;5030561;28;20025;-49
2021/04/30 07:14:07;;;;;;;6.57;1.10;;;18.40;99.90;;;17.74;76.15;100202.97;5030221;28;20327;-49
2021/04/30 07:16:34;;;;;;;2.60;1.15;;;18.50;99.90;;;17.74;76.29;100210.06;5030360;28;20033;-47
2021/04/30 07:19:00;;;;;;;4.07;1.27;;;18.50;99.90;;;17.46;76.78;100204.88;5030050;28;20025;-48
2021/04/30 07:21:26;;;;;;;2.67;1.10;;;18.30;99.90;;;17.18;77.44;100210.97;5030493;28;20045;-50
2021/04/30 07:23:52;;;;;;;5.60;1.67;;;18.10;99.90;;;17.05;78.11;100207.44;5030051;28;20164;-51
2021/04/30 07:26:18;;;;;;;5.07;1.27;;;17.90;99.90;;;17.14;78.12;100211.56;5030476;28;20049;-51
2021/04/30 07:28:44;;;;;;;7.07;1.52;;;17.90;99.90;;;17.28;78.29;100215.09;5030091;28;20041;-51
2021/04/30 07:31:10;;;;;;;6.18;1.30;;;17.90;99.90;;;17.22;78.21;100214.84;5029307;28;20041;-47
2021/04/30 07:33:38;;;;;;;4.57;1.05;;;17.90;99.90;;;17.23;77.56;100218.28;5029201;28;20030;-50
2021/04/30 07:36:05;;;;;;;4.80;1.27;;;17.90;99.90;;;17.34;76.96;100222.22;5029336;28;20041;-50
2021/04/30 07:38:31;;;;;;;5.07;0.90;;;18.00;99.90;;;17.45;77.10;100221.66;5028982;28;20038;-52
2021/04/30 07:40:57;;;;;;;7.25;1.35;;;18.10;99.90;;;17.44;77.21;100220.03;5020565;28;20034;-51
2021/04/30 07:43:23;;;;;;;6.35;1.10;;;18.20;99.90;;;17.46;76.65;100220.66;5026440;28;20033;-49
2021/04/30 07:45:49;;;;;;;6.55;0.90;;;18.10;99.90;;;17.55;76.34;100224.72;5025959;28;20074;-51
2021/04/30 07:48:15;;;;;;;10.93;1.27;;;18.20;99.90;;;17.71;75.42;100223.63;5049747;28;20045;-47
2021/04/30 07:50:41;;;;;;;5.05;1.58;;;18.30;99.90;;;17.94;74.95;100234.66;5049304;28;20436;-45
2021/04/30 07:53:07;;;;;;;3.28;1.02;;;18.50;99.90;;;18.00;74.56;100241.75;5049542;28;20025;-44
2021/04/30 07:55:33;;;;;;;6.07;1.25;;;18.60;99.90;;;17.84;75.71;100239.50;5049521;28;20132;-49
2021/04/30 07:57:59;;;;;;;7.70;1.20;;;18.50;99.90;;;17.81;76.00;100245.97;5049660;28;20151;-49
2021/04/30 08:00:25;;;;;;;3.58;1.23;;;18.50;99.90;;;17.89;75.52;100248.44;5049606;28;20033;-48
2021/04/30 08:02:52;;;;;;;5.82;1.75;;;18.50;99.90;;;17.75;75.79;100241.47;5049684;28;20072;-46
2021/04/30 08:05:18;;;;;;;4.82;1.20;;;18.40;99.90;;;17.71;75.89;100245.53;5037024;28;20482;-47
2021/04/30 08:07:44;;;;;;;2.92;0.82;;;18.40;99.90;;;17.74;75.29;100249.59;5028022;28;20029;-48
2021/04/30 08:10:12;;;;;;;8.20;1.33;;;18.40;99.90;;;17.98;74.38;100251.69;5028764;28;20043;-47
2021/04/30 08:12:39;;;;;;;5.22;1.33;;;18.50;99.90;;;17.97;73.73;100254.53;5031131;28;20029;-47
2021/04/30 08:15:06;;;;;;;4.03;1.30;;;18.60;99.90;;;18.15;73.80;100258.25;5050244;28;20044;-49
2021/04/30 08:17:32;;;;;;;6.95;1.00;;;18.70;99.90;;;18.35;73.36;100257.50;5028450;28;20041;-50
2021/04/30 08:19:59;;;;;;;7.65;1.08;;;18.90;99.90;;;18.43;73.15;100257.31;5029020;28;20804;-47
2021/04/30 08:22:28;;;;;;;6.43;1.70;;;19.00;99.90;;;18.52;73.00;100258.72;5029162;28;20042;-48
2021/04/30 08:24:55;;;;;;;10.60;2.20;;;19.10;99.90;;;18.75;72.59;100253.91;5029468;28;20086;-44
2021/04/30 08:27:22;;;;;;;7.30;1.05;;;19.30;99.90;;;18.99;71.92;100255.09;5026649;28;20106;-47
2021/04/30 08:29:49;;;;;;;3.42;0.88;;;19.60;99.90;;;19.04;71.21;100257.13;5009025;28;20497;-45
2021/04/30 08:32:15;;;;;;;9.57;1.23;;;19.60;99.90;;;18.99;71.04;100259.56;5009255;28;20138;-46
2021/04/30 08:34:42;;;;;;;3.03;0.95;;;19.70;99.90;;;19.16;70.10;100258.13;5009017;28;20404;-48
2021/04/30 08:37:08;;;;;;;3.80;0.90;;;19.80;99.90;;;19.80;68.49;100255.56;5008949;28;20034;-47
2021/04/30 08:39:34;;;;;;;5.35;1.02;;;20.30;99.90;;;20.19;66.94;100257.19;5009066;28;20518;-47
2021/04/30 08:42:00;;;;;;;2.92;0.90;;;20.80;99.90;;;20.25;67.06;100257.38;5008944;28;20605;-49
2021/04/30 08:44:26;;;;;;;6.90;0.73;;;21.00;99.90;;;19.92;67.71;100260.97;5009077;28;20034;-52
2021/04/30 08:46:52;;;;;;;3.83;0.88;;;20.80;99.90;;;19.78;68.11;100256.78;5008837;28;20061;-48
2021/04/30 08:49:19;;;;;;;4.50;1.67;;;20.60;99.90;;;19.51;68.83;100258.69;5008524;28;20049;-49
2021/04/30 08:51:45;;;;;;;5.10;1.33;;;20.40;99.90;;;19.77;68.42;100263.91;5008594;28;20405;-48
2021/04/30 08:54:11;;;;;;;12.35;1.30;;;20.40;99.90;;;19.86;68.03;100261.81;5008258;28;20033;-52
2021/04/30 08:56:44;;;;;;;12.00;1.23;;;20.50;99.90;;;20.04;67.42;100263.78;5008933;28;20041;-52
2021/04/30 08:59:14;;;;;;;9.57;0.82;;;20.60;99.90;;;20.17;67.29;100269.81;5008604;28;20038;-49
2021/04/30 09:01:41;;;;;;;5.68;1.15;;;20.90;99.90;;;20.07;67.30;100268.66;5021566;28;20030;-49
2021/04/30 09:04:08;;;;;;;6.57;0.98;;;20.90;99.90;;;19.85;67.96;100271.56;5010739;28;20076;-51
2021/04/30 09:06:40;;;;;;;8.57;0.90;;;20.70;99.90;;;19.50;68.62;100276.34;5027350;28;20120;-45
2021/04/30 09:09:12;;;;;;;3.47;0.50;;;20.50;99.90;;;19.40;68.64;100273.31;5028335;28;20322;-48
2021/04/30 09:11:53;;;;;;;4.20;0.77;;;20.30;99.90;;;19.25;68.50;100269.31;5026441;28;20512;-52
2021/04/30 09:14:35;;;;;;;6.15;0.80;;;20.20;99.90;;;19.37;67.94;100271.13;5027608;28;20041;-50
2021/04/30 09:17:13;;;;;;;5.47;1.60;;;20.10;99.90;;;19.55;67.54;100266.00;5025148;28;20059;-54
2021/04/30 09:19:47;;;;;;;3.70;0.60;;;20.20;99.90;;;19.77;67.47;100271.03;5027957;28;20481;-52
2021/04/30 09:22:18;;;;;;;6.00;1.33;;;20.30;99.90;;;19.88;66.70;100265.06;5025345;28;20201;-50
2021/04/30 09:25:09;;;;;;;7.35;1.13;;;20.50;99.90;;;20.48;65.19;100255.81;5026600;28;20029;-49
2021/04/30 09:27:44;;;;;;;5.45;1.50;;;20.90;99.90;;;20.62;64.43;100261.03;5027070;28;20413;-47
2021/04/30 09:30:29;;;;;;;5.10;0.90;;;21.40;99.90;;;20.76;63.57;100255.41;5028330;28;20109;-55
2021/04/30 09:33:16;;;;;;;6.35;0.82;;;21.60;99.90;;;20.84;64.08;100256.94;5024118;28;20080;-49
2021/04/30 09:36:00;;;;;;;5.22;0.90;;;21.60;99.90;;;21.00;62.47;100260.91;5027855;28;20057;-48
2021/04/30 09:38:30;;;;;;;4.30;0.70;;;21.70;99.90;;;21.03;63.22;100263.94;5026805;28;20570;-50
2021/04/30 09:41:09;;;;;;;4.25;0.70;;;21.70;99.90;;;21.29;62.17;100252.28;5027309;28;20454;-54
2021/04/30 09:43:44;;;;;;;5.55;0.90;;;22.00;99.90;;;21.72;61.50;100257.53;5028324;28;20096;-47
2021/04/30 09:46:32;;;;;;;2.67;0.65;;;22.30;99.90;;;22.16;59.62;100252.91;5027009;28;20049;-52
2021/04/30 09:49:08;;;;;;;6.18;0.70;;;22.80;99.90;;;22.52;58.96;100257.28;5024073;28;20029;-53
2021/04/30 09:51:51;;;;;;;3.45;0.90;;;23.20;99.10;;;22.36;59.53;100248.13;5008452;28;20042;-49
2021/04/30 09:54:23;;;;;;;4.43;0.70;;;23.30;98.30;;;22.36;58.99;100252.63;5021867;28;20359;-50
2021/04/30 09:57:17;;;;;;;4.53;0.70;;;23.30;97.40;;;23.34;55.19;100244.06;5026952;28;20041;-52
2021/04/30 10:00:10;;;;;;;3.83;0.70;;;23.60;96.40;;;23.19;55.44;100247.19;5026982;28;20125;-53
2021/04/30 10:02:37;;;;;;;5.00;0.75;;;24.10;94.30;;;22.80;58.29;100246.84;5013460;28;20042;-47
2021/04/30 10:05:19;;;;;;;1.27;0.50;;;23.80;95.70;;;22.32;56.04;100252.25;5028516;28;20354;-51
2021/04/30 10:07:45;;;;;;;4.90;0.77;;;23.30;93.20;;;21.88;59.92;100240.19;5029219;28;20509;-47
2021/04/30 10:10:22;;;;;;;2.20;0.45;;;22.80;96.60;;;22.13;57.17;100246.22;5028105;28;20160;-49
2021/04/30 10:12:58;;;;;;;1.50;0.40;;;23.00;94.70;;;21.50;58.71;100254.50;5030990;28;20034;-51
2021/04/30 10:15:27;;;;;;;2.25;0.60;;;22.60;94.80;;;20.96;61.85;100257.06;5031482;28;20440;-53
2021/04/30 10:17:58;;;;;;;1.70;0.40;;;22.00;97.40;;;20.96;60.69;100251.78;5031192;28;20037;-48
2021/04/30 10:20:24;;;;;;;2.78;0.93;;;21.90;97.30;;;20.61;62.31;100259.41;5031244;28;20045;-50